sensor_id;sensor_type;location;lat;lon;timestamp;pressure;altitude;pressure_sealevel;temperature;humidity
15260;BME280;34462;51.368;12.364;2023-03-22T00:02:27;19208.25;;;-141.84;96.26
15260;BME280;34462;51.368;12.364;2023-03-22T00:04:56;19216.38;;;-141.84;96.16
15260;BME280;34462;51.368;12.364;2023-03-22T00:07:24;19194.03;;;-141.84;96.49
15260;BME280;34462;51.368;12.364;2023-03-22T00:09:53;19202.16;;;-141.84;96.35
15260;BME280;34462;51.368;12.364;2023-03-22T00:12:21;19192.00;;;-141.84;96.54
15260;BME280;34462;51.368;12.364;2023-03-22T00:14:50;19192.00;;;-141.84;96.67
15260;BME280;34462;51.368;12.364;2023-03-22T00:17:18;19173.69;;;-141.84;96.58
15260;BME280;34462;51.368;12.364;2023-03-22T00:19:50;19179.78;;;-141.84;96.54
15260;BME280;34462;51.368;12.364;2023-03-22T00:22:20;19202.16;;;-141.84;96.18
15260;BME280;34462;51.368;12.364;2023-03-22T00:24:48;19171.66;;;-141.84;95.94
15260;BME280;34462;51.368;12.364;2023-03-22T00:27:17;19200.13;;;-141.84;95.79
15260;BME280;34462;51.368;12.364;2023-03-22T00:29:45;19173.69;;;-141.84;95.72
15260;BME280;34462;51.368;12.364;2023-03-22T00:32:13;19167.59;;;-141.84;95.97
15260;BME280;34462;51.368;12.364;2023-03-22T00:34:41;19183.84;;;-141.84;95.85
15260;BME280;34462;51.368;12.364;2023-03-22T00:37:11;19171.66;;;-141.84;95.98
15260;BME280;34462;51.368;12.364;2023-03-22T00:39:39;19163.53;;;-141.84;95.96
15260;BME280;34462;51.368;12.364;2023-03-22T00:42:07;19177.75;;;-141.84;95.85
15260;BME280;34462;51.368;12.364;2023-03-22T00:44:35;19171.66;;;-141.84;95.90
15260;BME280;34462;51.368;12.364;2023-03-22T00:47:04;19129.00;;;-141.84;96.08
15260;BME280;34462;51.368;12.364;2023-03-22T00:49:32;19145.25;;;-141.84;95.99
15260;BME280;34462;51.368;12.364;2023-03-22T00:52:01;19126.97;;;-141.84;96.25
15260;BME280;34462;51.368;12.364;2023-03-22T00:54:30;19126.97;;;-141.84;96.81
15260;BME280;34462;51.368;12.364;2023-03-22T00:56:58;19151.34;;;-141.84;96.93
15260;BME280;34462;51.368;12.364;2023-03-22T00:59:27;19157.44;;;-141.84;95.74
15260;BME280;34462;51.368;12.364;2023-03-22T01:01:55;19189.97;;;-141.84;94.81
15260;BME280;34462;51.368;12.364;2023-03-22T01:04:24;19173.69;;;-141.84;94.84
15260;BME280;34462;51.368;12.364;2023-03-22T01:06:53;19153.38;;;-141.84;95.04
15260;BME280;34462;51.368;12.364;2023-03-22T01:09:25;19159.47;;;-141.84;95.33
15260;BME280;34462;51.368;12.364;2023-03-22T01:11:57;19147.28;;;-141.84;95.46
15260;BME280;34462;51.368;12.364;2023-03-22T01:14:25;19141.19;;;-141.84;95.41
15260;BME280;34462;51.368;12.364;2023-03-22T01:16:54;19139.16;;;-141.84;95.31
15260;BME280;34462;51.368;12.364;2023-03-22T01:19:23;19145.25;;;-141.84;95.39
15260;BME280;34462;51.368;12.364;2023-03-22T01:21:53;19126.97;;;-141.84;94.47
15260;BME280;34462;51.368;12.364;2023-03-22T01:24:22;19147.28;;;-141.84;94.03
15260;BME280;34462;51.368;12.364;2023-03-22T01:26:50;19171.66;;;-141.84;93.91
15260;BME280;34462;51.368;12.364;2023-03-22T01:29:20;19185.88;;;-141.84;93.40
15260;BME280;34462;51.368;12.364;2023-03-22T01:31:49;19179.78;;;-141.84;92.42
15260;BME280;34462;51.368;12.364;2023-03-22T01:34:18;19214.34;;;-141.84;91.93
15260;BME280;34462;51.368;12.364;2023-03-22T01:36:46;19210.28;;;-141.84;91.88
15260;BME280;34462;51.368;12.364;2023-03-22T01:39:16;19185.88;;;-141.84;92.10
15260;BME280;34462;51.368;12.364;2023-03-22T01:41:44;19173.69;;;-141.84;92.26
15260;BME280;34462;51.368;12.364;2023-03-22T01:44:16;19183.84;;;-141.84;91.90
15260;BME280;34462;51.368;12.364;2023-03-22T01:46:47;19185.88;;;-141.84;91.51
15260;BME280;34462;51.368;12.364;2023-03-22T01:49:21;19165.56;;;-141.84;91.07
15260;BME280;34462;51.368;12.364;2023-03-22T01:51:54;19216.38;;;-141.84;90.90
15260;BME280;34462;51.368;12.364;2023-03-22T01:54:31;19194.03;;;-141.84;90.92
15260;BME280;34462;51.368;12.364;2023-03-22T01:57:02;19194.03;;;-141.84;90.85
15260;BME280;34462;51.368;12.364;2023-03-22T01:59:31;19163.53;;;-141.84;90.93
15260;BME280;34462;51.368;12.364;2023-03-22T02:02:01;19189.97;;;-141.84;91.28
15260;BME280;34462;51.368;12.364;2023-03-22T02:04:34;19183.84;;;-141.84;91.52
15260;BME280;34462;51.368;12.364;2023-03-22T02:07:09;19194.03;;;-141.84;91.32
15260;BME280;34462;51.368;12.364;2023-03-22T02:09:41;19175.72;;;-141.84;91.08
15260;BME280;34462;51.368;12.364;2023-03-22T02:12:24;19155.41;;;-141.84;91.00
15260;BME280;34462;51.368;12.364;2023-03-22T02:15:05;19167.59;;;-141.84;91.19
15260;BME280;34462;51.368;12.364;2023-03-22T02:17:52;19143.22;;;-141.84;91.41
15260;BME280;34462;51.368;12.364;2023-03-22T02:21:24;19175.72;;;-141.84;91.31
15260;BME280;34462;51.368;12.364;2023-03-22T02:25:01;19167.59;;;-141.84;91.12
15260;BME280;34462;51.368;12.364;2023-03-22T02:28:12;19137.13;;;-141.84;91.09
15260;BME280;34462;51.368;12.364;2023-03-22T02:31:24;19155.41;;;-141.84;90.90
15260;BME280;34462;51.368;12.364;2023-03-22T02:34:31;19122.91;;;-141.84;91.12
15260;BME280;34462;51.368;12.364;2023-03-22T02:37:26;19124.94;;;-141.84;91.33
15260;BME280;34462;51.368;12.364;2023-03-22T02:40:05;19137.13;;;-141.84;91.33
15260;BME280;34462;51.368;12.364;2023-03-22T02:42:49;19165.56;;;-141.84;90.45
15260;BME280;34462;51.368;12.364;2023-03-22T02:45:29;19169.63;;;-141.84;90.18
15260;BME280;34462;51.368;12.364;2023-03-22T02:48:07;19145.25;;;-141.84;90.57
15260;BME280;34462;51.368;12.364;2023-03-22T02:50:42;19151.34;;;-141.84;90.75
15260;BME280;34462;51.368;12.364;2023-03-22T02:53:18;19177.75;;;-141.84;89.73
15260;BME280;34462;51.368;12.364;2023-03-22T02:55:53;19175.72;;;-141.84;89.46
15260;BME280;34462;51.368;12.364;2023-03-22T02:58:26;19171.66;;;-141.84;89.59
15260;BME280;34462;51.368;12.364;2023-03-22T03:01:01;19145.25;;;-141.84;89.99
15260;BME280;34462;51.368;12.364;2023-03-22T03:03:33;19192.00;;;-141.84;89.12
15260;BME280;34462;51.368;12.364;2023-03-22T03:06:08;19163.53;;;-141.84;89.31
15260;BME280;34462;51.368;12.364;2023-03-22T03:08:39;19189.97;;;-141.84;89.16
15260;BME280;34462;51.368;12.364;2023-03-22T03:11:09;19202.16;;;-141.84;88.68
15260;BME280;34462;51.368;12.364;2023-03-22T03:13:37;19204.19;;;-141.84;86.40
15260;BME280;34462;51.368;12.364;2023-03-22T03:16:10;19238.72;;;-141.84;86.74
15260;BME280;34462;51.368;12.364;2023-03-22T03:18:50;19210.28;;;-141.84;87.25
15260;BME280;34462;51.368;12.364;2023-03-22T03:21:33;19240.75;;;-141.84;86.81
15260;BME280;34462;51.368;12.364;2023-03-22T03:24:17;19244.81;;;-141.84;85.15
15260;BME280;34462;51.368;12.364;2023-03-22T03:26:57;19257.00;;;-141.84;85.31
15260;BME280;34462;51.368;12.364;2023-03-22T03:29:37;19232.63;;;-141.84;85.58
15260;BME280;34462;51.368;12.364;2023-03-22T03:32:13;19218.41;;;-141.84;86.06
15260;BME280;34462;51.368;12.364;2023-03-22T03:34:48;19236.69;;;-141.84;86.16
15260;BME280;34462;51.368;12.364;2023-03-22T03:37:24;19240.75;;;-141.84;85.47
15260;BME280;34462;51.368;12.364;2023-03-22T03:39:59;19265.13;;;-141.84;84.80
15260;BME280;34462;51.368;12.364;2023-03-22T03:42:36;19273.28;;;-141.84;84.95
15260;BME280;34462;51.368;12.364;2023-03-22T03:45:07;19291.56;;;-141.84;83.20
15260;BME280;34462;51.368;12.364;2023-03-22T03:47:37;19295.63;;;-141.84;82.28
15260;BME280;34462;51.368;12.364;2023-03-22T03:50:07;19313.91;;;-141.84;82.51
15260;BME280;34462;51.368;12.364;2023-03-22T03:52:35;19273.28;;;-141.84;82.98
15260;BME280;34462;51.368;12.364;2023-03-22T03:55:04;19283.44;;;-141.84;83.00
15260;BME280;34462;51.368;12.364;2023-03-22T03:57:34;19305.78;;;-141.84;83.28
15260;BME280;34462;51.368;12.364;2023-03-22T04:00:05;19289.53;;;-141.84;82.92
15260;BME280;34462;51.368;12.364;2023-03-22T04:02:33;19299.69;;;-141.84;83.03
15260;BME280;34462;51.368;12.364;2023-03-22T04:05:02;19271.25;;;-141.84;82.05
15260;BME280;34462;51.368;12.364;2023-03-22T04:07:30;19320.00;;;-141.84;82.09
15260;BME280;34462;51.368;12.364;2023-03-22T04:09:58;19332.19;;;-141.84;80.08
15260;BME280;34462;51.368;12.364;2023-03-22T04:12:26;19376.91;;;-141.84;79.45
15260;BME280;34462;51.368;12.364;2023-03-22T04:14:56;19380.97;;;-141.84;78.71
15260;BME280;34462;51.368;12.364;2023-03-22T04:17:25;19395.19;;;-141.84;79.05
15260;BME280;34462;51.368;12.364;2023-03-22T04:19:54;19362.69;;;-141.84;79.53
15260;BME280;34462;51.368;12.364;2023-03-22T04:22:23;19338.28;;;-141.84;79.47
15260;BME280;34462;51.368;12.364;2023-03-22T04:24:52;19317.97;;;-141.84;80.23
15260;BME280;34462;51.368;12.364;2023-03-22T04:27:21;19330.16;;;-141.84;80.83
15260;BME280;34462;51.368;12.364;2023-03-22T04:29:49;19320.00;;;-141.84;80.27
15260;BME280;34462;51.368;12.364;2023-03-22T04:32:20;19342.34;;;-141.84;80.06
15260;BME280;34462;51.368;12.364;2023-03-22T04:34:51;19305.78;;;-141.84;80.56
15260;BME280;34462;51.368;12.364;2023-03-22T04:37:20;19340.31;;;-141.84;80.95
15260;BME280;34462;51.368;12.364;2023-03-22T04:39:50;19311.88;;;-141.84;79.72
15260;BME280;34462;51.368;12.364;2023-03-22T04:42:19;19342.34;;;-141.84;79.99
15260;BME280;34462;51.368;12.364;2023-03-22T04:44:47;19303.75;;;-141.84;80.71
15260;BME280;34462;51.368;12.364;2023-03-22T04:47:15;19295.63;;;-141.84;81.89
15260;BME280;34462;51.368;12.364;2023-03-22T04:49:45;19332.19;;;-141.84;81.35
15260;BME280;34462;51.368;12.364;2023-03-22T04:52:13;19285.47;;;-141.84;81.82
15260;BME280;34462;51.368;12.364;2023-03-22T04:54:41;19271.25;;;-141.84;82.48
15260;BME280;34462;51.368;12.364;2023-03-22T04:57:09;19309.84;;;-141.84;81.01
15260;BME280;34462;51.368;12.364;2023-03-22T04:59:38;19309.84;;;-141.84;80.43
15260;BME280;34462;51.368;12.364;2023-03-22T05:02:06;19301.72;;;-141.84;80.78
15260;BME280;34462;51.368;12.364;2023-03-22T05:04:34;19297.66;;;-141.84;81.47
15260;BME280;34462;51.368;12.364;2023-03-22T05:07:03;19285.47;;;-141.84;81.96
15260;BME280;34462;51.368;12.364;2023-03-22T05:09:31;19293.59;;;-141.84;81.54
15260;BME280;34462;51.368;12.364;2023-03-22T05:12:00;19305.78;;;-141.84;80.69
15260;BME280;34462;51.368;12.364;2023-03-22T05:14:28;19305.78;;;-141.84;81.10
15260;BME280;34462;51.368;12.364;2023-03-22T05:16:56;19295.63;;;-141.84;81.01
15260;BME280;34462;51.368;12.364;2023-03-22T05:19:24;19285.47;;;-141.84;81.51
15260;BME280;34462;51.368;12.364;2023-03-22T05:21:53;19297.66;;;-141.84;81.73
15260;BME280;34462;51.368;12.364;2023-03-22T05:24:25;19332.19;;;-141.84;80.67
15260;BME280;34462;51.368;12.364;2023-03-22T05:26:53;19309.84;;;-141.84;80.07
15260;BME280;34462;51.368;12.364;2023-03-22T05:29:22;19309.84;;;-141.84;80.46
15260;BME280;34462;51.368;12.364;2023-03-22T05:31:50;19320.00;;;-141.84;79.78
15260;BME280;34462;51.368;12.364;2023-03-22T05:34:18;19350.50;;;-141.84;79.70
15260;BME280;34462;51.368;12.364;2023-03-22T05:36:47;19322.03;;;-141.84;80.04
15260;BME280;34462;51.368;12.364;2023-03-22T05:39:17;19291.56;;;-141.84;80.62
15260;BME280;34462;51.368;12.364;2023-03-22T05:41:47;19309.84;;;-141.84;80.24
15260;BME280;34462;51.368;12.364;2023-03-22T05:44:15;19297.66;;;-141.84;80.29
15260;BME280;34462;51.368;12.364;2023-03-22T05:46:44;19307.81;;;-141.84;80.64
15260;BME280;34462;51.368;12.364;2023-03-22T05:49:12;19342.34;;;-141.84;80.02
15260;BME280;34462;51.368;12.364;2023-03-22T05:51:40;19309.84;;;-141.84;80.12
15260;BME280;34462;51.368;12.364;2023-03-22T05:54:09;19350.50;;;-141.84;79.32
15260;BME280;34462;51.368;12.364;2023-03-22T05:56:37;19362.69;;;-141.84;77.86
15260;BME280;34462;51.368;12.364;2023-03-22T05:59:08;19354.56;;;-141.84;77.78
15260;BME280;34462;51.368;12.364;2023-03-22T06:01:36;19334.22;;;-141.84;78.71
15260;BME280;34462;51.368;12.364;2023-03-22T06:04:05;19320.00;;;-141.84;77.92
15260;BME280;34462;51.368;12.364;2023-03-22T06:06:33;19334.22;;;-141.84;78.78
15260;BME280;34462;51.368;12.364;2023-03-22T06:09:02;19348.47;;;-141.84;79.03
15260;BME280;34462;51.368;12.364;2023-03-22T06:11:42;19385.03;;;-141.84;77.95
15260;BME280;34462;51.368;12.364;2023-03-22T06:14:12;19393.16;;;-141.84;77.78
15260;BME280;34462;51.368;12.364;2023-03-22T06:16:40;19395.19;;;-141.84;77.42
15260;BME280;34462;51.368;12.364;2023-03-22T06:19:08;19413.47;;;-141.84;76.86
15260;BME280;34462;51.368;12.364;2023-03-22T06:21:36;19425.69;;;-141.84;77.16
15260;BME280;34462;51.368;12.364;2023-03-22T06:24:05;19405.34;;;-141.84;75.84
15260;BME280;34462;51.368;12.364;2023-03-22T06:26:33;19417.56;;;-141.84;76.76
15260;BME280;34462;51.368;12.364;2023-03-22T06:29:01;19413.47;;;-141.84;76.86
15260;BME280;34462;51.368;12.364;2023-03-22T06:31:31;19409.41;;;-141.84;76.86
15260;BME280;34462;51.368;12.364;2023-03-22T06:33:59;19423.66;;;-141.84;76.73
15260;BME280;34462;51.368;12.364;2023-03-22T06:36:28;19425.69;;;-141.84;76.32
15260;BME280;34462;51.368;12.364;2023-03-22T06:38:57;19417.56;;;-141.84;76.53
15260;BME280;34462;51.368;12.364;2023-03-22T06:41:26;19441.94;;;-141.84;76.56
15260;BME280;34462;51.368;12.364;2023-03-22T06:43:54;19429.75;;;-141.84;76.41
15260;BME280;34462;51.368;12.364;2023-03-22T06:46:23;19403.31;;;-141.84;76.04
15260;BME280;34462;51.368;12.364;2023-03-22T06:48:53;19466.31;;;-141.84;75.88
15260;BME280;34462;51.368;12.364;2023-03-22T06:51:21;19496.81;;;-141.84;74.90
15260;BME280;34462;51.368;12.364;2023-03-22T06:53:50;19494.78;;;-141.84;73.97
15260;BME280;34462;51.368;12.364;2023-03-22T06:56:18;19529.31;;;-141.84;73.88
15260;BME280;34462;51.368;12.364;2023-03-22T06:58:47;19500.88;;;-141.84;73.34
15260;BME280;34462;51.368;12.364;2023-03-22T07:01:15;19553.72;;;-141.84;72.58
15260;BME280;34462;51.368;12.364;2023-03-22T07:03:43;19563.88;;;-141.84;72.34
15260;BME280;34462;51.368;12.364;2023-03-22T07:06:13;19561.84;;;-141.84;72.58
15260;BME280;34462;51.368;12.364;2023-03-22T07:08:41;19580.13;;;-141.84;71.88
15260;BME280;34462;51.368;12.364;2023-03-22T07:11:10;19569.97;;;-141.84;71.00
15260;BME280;34462;51.368;12.364;2023-03-22T07:13:38;19594.34;;;-141.84;71.58
15260;BME280;34462;51.368;12.364;2023-03-22T07:16:08;19610.59;;;-141.84;71.20
15260;BME280;34462;51.368;12.364;2023-03-22T07:18:36;19637.03;;;-141.84;70.45
15260;BME280;34462;51.368;12.364;2023-03-22T07:21:05;19618.75;;;-141.84;71.21
15260;BME280;34462;51.368;12.364;2023-03-22T07:23:34;19624.84;;;-141.84;71.04
15260;BME280;34462;51.368;12.364;2023-03-22T07:26:03;19635.00;;;-141.84;70.80
15260;BME280;34462;51.368;12.364;2023-03-22T07:28:31;19626.88;;;-141.84;70.96
15260;BME280;34462;51.368;12.364;2023-03-22T07:31:02;19635.00;;;-141.84;70.34
15260;BME280;34462;51.368;12.364;2023-03-22T07:33:31;19669.53;;;-141.84;69.10
15260;BME280;34462;51.368;12.364;2023-03-22T07:35:59;19687.84;;;-141.84;69.50
15260;BME280;34462;51.368;12.364;2023-03-22T07:38:27;19679.72;;;-141.84;68.53
15260;BME280;34462;51.368;12.364;2023-03-22T07:40:57;19683.78;;;-141.84;68.71
15260;BME280;34462;51.368;12.364;2023-03-22T07:43:25;19667.50;;;-141.84;68.73
15260;BME280;34462;51.368;12.364;2023-03-22T07:45:53;19663.44;;;-141.84;69.81
15260;BME280;34462;51.368;12.364;2023-03-22T07:48:22;19724.41;;;-141.84;69.48
15260;BME280;34462;51.368;12.364;2023-03-22T07:50:54;19716.28;;;-141.84;69.23
15260;BME280;34462;51.368;12.364;2023-03-22T07:57:30;19677.66;;;-141.84;69.60
15260;BME280;34462;51.368;12.364;2023-03-22T07:59:58;19704.09;;;-141.84;69.79
15260;BME280;34462;51.368;12.364;2023-03-22T08:02:26;19677.66;;;-141.84;69.67
15260;BME280;34462;51.368;12.364;2023-03-22T08:04:55;19740.69;;;-141.84;69.12
15260;BME280;34462;51.368;12.364;2023-03-22T08:07:23;19736.59;;;-141.84;68.87
15260;BME280;34462;51.368;12.364;2023-03-22T08:09:52;19765.06;;;-141.84;68.01
15260;BME280;34462;51.368;12.364;2023-03-22T08:12:20;19722.38;;;-141.84;68.10
15260;BME280;34462;51.368;12.364;2023-03-22T08:14:49;19720.34;;;-141.84;69.34
15260;BME280;34462;51.368;12.364;2023-03-22T08:17:20;19742.72;;;-141.84;69.42
15260;BME280;34462;51.368;12.364;2023-03-22T08:19:48;19738.66;;;-141.84;69.12
15260;BME280;34462;51.368;12.364;2023-03-22T08:22:16;19781.31;;;-141.84;68.45
15260;BME280;34462;51.368;12.364;2023-03-22T08:24:44;19746.78;;;-141.84;67.46
15260;BME280;34462;51.368;12.364;2023-03-22T08:27:13;19834.16;;;-141.84;67.70
15260;BME280;34462;51.368;12.364;2023-03-22T08:29:41;19805.72;;;-141.84;67.98
15260;BME280;34462;51.368;12.364;2023-03-22T08:32:11;19874.81;;;-141.84;67.71
15260;BME280;34462;51.368;12.364;2023-03-22T08:34:40;19850.41;;;-141.84;67.40
15260;BME280;34462;51.368;12.364;2023-03-22T08:37:10;19866.69;;;-141.84;67.03
15260;BME280;34462;51.368;12.364;2023-03-22T08:39:39;19882.94;;;-141.84;66.52
15260;BME280;34462;51.368;12.364;2023-03-22T08:42:08;19874.81;;;-141.84;66.73
15260;BME280;34462;51.368;12.364;2023-03-22T08:44:36;19889.03;;;-141.84;66.05
15260;BME280;34462;51.368;12.364;2023-03-22T08:47:04;19925.63;;;-141.84;64.92
15260;BME280;34462;51.368;12.364;2023-03-22T08:49:34;19872.78;;;-141.84;65.65
15260;BME280;34462;51.368;12.364;2023-03-22T08:52:02;19976.44;;;-141.84;64.32
15260;BME280;34462;51.368;12.364;2023-03-22T08:54:33;19996.75;;;-141.84;63.54
15260;BME280;34462;51.368;12.364;2023-03-22T08:57:02;19956.09;;;-141.84;63.20
15260;BME280;34462;51.368;12.364;2023-03-22T08:59:30;19962.19;;;-141.84;62.28
15260;BME280;34462;51.368;12.364;2023-03-22T09:01:58;19943.91;;;-141.84;63.00
15260;BME280;34462;51.368;12.364;2023-03-22T09:04:26;19968.31;;;-141.84;62.65
15260;BME280;34462;51.368;12.364;2023-03-22T09:06:56;20002.84;;;-141.84;61.60
15260;BME280;34462;51.368;12.364;2023-03-22T09:09:24;19954.06;;;-141.84;62.40
15260;BME280;34462;51.368;12.364;2023-03-22T09:11:52;20010.97;;;-141.84;62.68
15260;BME280;34462;51.368;12.364;2023-03-22T09:14:20;20000.81;;;-141.84;62.86
15260;BME280;34462;51.368;12.364;2023-03-22T09:16:49;20015.03;;;-141.84;62.46
15260;BME280;34462;51.368;12.364;2023-03-22T09:19:17;20027.25;;;-141.84;61.32
15260;BME280;34462;51.368;12.364;2023-03-22T09:21:46;20094.31;;;-141.84;59.79
15260;BME280;34462;51.368;12.364;2023-03-22T09:24:15;20094.31;;;-141.84;60.03
15260;BME280;34462;51.368;12.364;2023-03-22T09:26:44;20141.06;;;-141.84;59.54
15260;BME280;34462;51.368;12.364;2023-03-22T09:29:12;20124.81;;;-141.84;58.52
15260;BME280;34462;51.368;12.364;2023-03-22T09:31:41;20179.69;;;-141.84;59.10
15260;BME280;34462;51.368;12.364;2023-03-22T09:34:09;20177.66;;;-141.84;58.87
15260;BME280;34462;51.368;12.364;2023-03-22T09:36:37;20161.38;;;-141.84;58.78
15260;BME280;34462;51.368;12.364;2023-03-22T09:39:06;20147.16;;;-141.84;58.98
15260;BME280;34462;51.368;12.364;2023-03-22T09:41:43;20147.16;;;-141.84;58.71
15260;BME280;34462;51.368;12.364;2023-03-22T09:44:16;20163.41;;;-141.84;59.16
15260;BME280;34462;51.368;12.364;2023-03-22T09:46:52;20141.06;;;-141.84;59.74
15260;BME280;34462;51.368;12.364;2023-03-22T09:49:28;20163.41;;;-141.84;59.29
15260;BME280;34462;51.368;12.364;2023-03-22T09:52:16;20236.59;;;-141.84;57.89
15260;BME280;34462;51.368;12.364;2023-03-22T09:54:46;20228.47;;;-141.84;58.34
15260;BME280;34462;51.368;12.364;2023-03-22T09:57:26;20191.88;;;-141.84;58.11
15260;BME280;34462;51.368;12.364;2023-03-22T10:00:10;20181.72;;;-141.84;58.18
15260;BME280;34462;51.368;12.364;2023-03-22T10:02:57;20240.66;;;-141.84;58.22
15260;BME280;34462;51.368;12.364;2023-03-22T10:05:34;20254.88;;;-141.84;58.43
15260;BME280;34462;51.368;12.364;2023-03-22T10:08:40;20254.88;;;-141.84;56.25
15260;BME280;34462;51.368;12.364;2023-03-22T10:11:22;20307.72;;;-141.84;55.77
15260;BME280;34462;51.368;12.364;2023-03-22T10:14:01;20309.75;;;-141.84;55.43
15260;BME280;34462;51.368;12.364;2023-03-22T10:16:36;20360.59;;;-141.84;55.73
15260;BME280;34462;51.368;12.364;2023-03-22T10:19:18;20358.56;;;-141.84;54.93
15260;BME280;34462;51.368;12.364;2023-03-22T10:21:50;20342.28;;;-141.84;55.31
15260;BME280;34462;51.368;12.364;2023-03-22T10:24:25;20281.31;;;-141.84;55.94
15260;BME280;34462;51.368;12.364;2023-03-22T10:26:55;20248.78;;;-141.84;56.50
15260;BME280;34462;51.368;12.364;2023-03-22T10:29:31;20208.13;;;-141.84;56.91
15260;BME280;34462;51.368;12.364;2023-03-22T10:32:13;20208.13;;;-141.84;57.23
15260;BME280;34462;51.368;12.364;2023-03-22T10:34:42;20267.09;;;-141.84;57.51
15260;BME280;34462;51.368;12.364;2023-03-22T10:37:14;20281.31;;;-141.84;57.70
15260;BME280;34462;51.368;12.364;2023-03-22T10:39:47;20236.59;;;-141.84;57.27
15260;BME280;34462;51.368;12.364;2023-03-22T10:42:20;20271.16;;;-141.84;56.16
15260;BME280;34462;51.368;12.364;2023-03-22T10:44:56;20315.88;;;-141.84;56.01
15260;BME280;34462;51.368;12.364;2023-03-22T10:47:32;20330.09;;;-141.84;54.49
15260;BME280;34462;51.368;12.364;2023-03-22T10:50:08;20376.84;;;-141.84;54.41
15260;BME280;34462;51.368;12.364;2023-03-22T10:52:46;20376.84;;;-141.84;54.60
15260;BME280;34462;51.368;12.364;2023-03-22T10:55:16;20380.91;;;-141.84;54.11
15260;BME280;34462;51.368;12.364;2023-03-22T10:57:55;20405.31;;;-141.84;53.81
15260;BME280;34462;51.368;12.364;2023-03-22T11:00:26;20452.06;;;-141.84;53.18
15260;BME280;34462;51.368;12.364;2023-03-22T11:02:59;20511.00;;;-141.84;52.23
15260;BME280;34462;51.368;12.364;2023-03-22T11:05:29;20460.19;;;-141.84;53.09
15260;BME280;34462;51.368;12.364;2023-03-22T11:07:57;20533.34;;;-141.84;52.11
15260;BME280;34462;51.368;12.364;2023-03-22T11:10:29;20508.97;;;-141.84;53.40
15260;BME280;34462;51.368;12.364;2023-03-22T11:13:16;20525.22;;;-141.84;52.25
15260;BME280;34462;51.368;12.364;2023-03-22T11:15:57;20555.72;;;-141.84;51.54
15260;BME280;34462;51.368;12.364;2023-03-22T11:18:30;20543.53;;;-141.84;51.92
15260;BME280;34462;51.368;12.364;2023-03-22T11:21:04;20673.63;;;-141.84;50.85
15260;BME280;34462;51.368;12.364;2023-03-22T11:23:34;20675.66;;;-141.84;49.78
15260;BME280;34462;51.368;12.364;2023-03-22T11:26:09;20618.72;;;-141.84;50.48
15260;BME280;34462;51.368;12.364;2023-03-22T11:28:45;20559.78;;;-141.84;50.97
15260;BME280;34462;51.368;12.364;2023-03-22T11:31:17;20576.03;;;-141.84;51.00
15260;BME280;34462;51.368;12.364;2023-03-22T11:33:56;20582.16;;;-141.84;51.20
15260;BME280;34462;51.368;12.364;2023-03-22T11:36:26;20584.19;;;-141.84;49.44
15260;BME280;34462;51.368;12.364;2023-03-22T11:39:00;20594.34;;;-141.84;49.24
15260;BME280;34462;51.368;12.364;2023-03-22T11:41:35;20618.72;;;-141.84;49.18
15260;BME280;34462;51.368;12.364;2023-03-22T11:44:07;20555.72;;;-141.84;48.58
15260;BME280;34462;51.368;12.364;2023-03-22T11:46:38;20592.31;;;-141.84;48.86
15260;BME280;34462;51.368;12.364;2023-03-22T11:49:17;20657.34;;;-141.84;48.36
15260;BME280;34462;51.368;12.364;2023-03-22T11:51:45;20736.63;;;-141.84;47.19
15260;BME280;34462;51.368;12.364;2023-03-22T11:54:26;20777.28;;;-141.84;46.55
15260;BME280;34462;51.368;12.364;2023-03-22T11:56:58;20714.28;;;-141.84;46.53
15260;BME280;34462;51.368;12.364;2023-03-22T11:59:37;20765.09;;;-141.84;46.76
15260;BME280;34462;51.368;12.364;2023-03-22T12:02:17;20756.97;;;-141.84;46.96
15260;BME280;34462;51.368;12.364;2023-03-22T12:04:50;20801.69;;;-141.84;46.35
15260;BME280;34462;51.368;12.364;2023-03-22T12:07:20;20824.06;;;-141.84;46.32
15260;BME280;34462;51.368;12.364;2023-03-22T12:09:57;20864.72;;;-141.84;45.33
15260;BME280;34462;51.368;12.364;2023-03-22T12:12:30;20852.50;;;-141.84;43.80
15260;BME280;34462;51.368;12.364;2023-03-22T12:15:04;20809.81;;;-141.84;43.97
15260;BME280;34462;51.368;12.364;2023-03-22T12:17:37;20761.03;;;-141.84;45.06
15260;BME280;34462;51.368;12.364;2023-03-22T12:20:19;20714.28;;;-141.84;45.40
15260;BME280;34462;51.368;12.364;2023-03-22T12:22:53;20693.94;;;-141.84;45.58
15260;BME280;34462;51.368;12.364;2023-03-22T12:25:28;20683.78;;;-141.84;46.31
15260;BME280;34462;51.368;12.364;2023-03-22T12:28:01;20708.19;;;-141.84;46.10
15260;BME280;34462;51.368;12.364;2023-03-22T12:30:39;20738.66;;;-141.84;45.61
15260;BME280;34462;51.368;12.364;2023-03-22T12:33:16;20744.78;;;-141.84;46.04
15260;BME280;34462;51.368;12.364;2023-03-22T12:35:50;20769.16;;;-141.84;45.91
15260;BME280;34462;51.368;12.364;2023-03-22T12:38:27;20801.69;;;-141.84;45.55
15260;BME280;34462;51.368;12.364;2023-03-22T12:41:03;20801.69;;;-141.84;44.97
15260;BME280;34462;51.368;12.364;2023-03-22T12:43:45;20866.75;;;-141.84;44.81
15260;BME280;34462;51.368;12.364;2023-03-22T12:46:19;20895.19;;;-141.84;44.60
15260;BME280;34462;51.368;12.364;2023-03-22T12:48:55;20824.06;;;-141.84;45.13
15260;BME280;34462;51.368;12.364;2023-03-22T12:51:25;20815.91;;;-141.84;45.29
15260;BME280;34462;51.368;12.364;2023-03-22T12:53:56;20783.41;;;-141.84;45.50
15260;BME280;34462;51.368;12.364;2023-03-22T12:56:40;20815.91;;;-141.84;45.69
15260;BME280;34462;51.368;12.364;2023-03-22T12:59:16;20887.06;;;-141.84;44.97
15260;BME280;34462;51.368;12.364;2023-03-22T13:01:50;20805.75;;;-141.84;45.52